createdAt,value
2022-11-23T00:01:34.018Z,4.67
2022-11-23T00:04:11.967Z,5.20
2022-11-23T00:06:39.971Z,6.95
2022-11-23T00:09:08.272Z,8.68
2022-11-23T00:11:36.274Z,7.75
2022-11-23T00:14:04.324Z,4.97
2022-11-23T00:16:32.365Z,3.85
2022-11-23T00:19:01.296Z,3.10
2022-11-23T00:21:31.861Z,4.58
2022-11-23T00:23:59.562Z,9.90
2022-11-23T00:26:27.794Z,6.15
2022-11-23T00:28:55.354Z,5.40
2022-11-23T00:31:25.257Z,4.35
2022-11-23T00:33:55.217Z,3.47
2022-11-23T00:36:25.200Z,3.90
2022-11-23T00:38:55.112Z,4.35
2022-11-23T00:41:25.836Z,4.40
2022-11-23T00:43:53.718Z,3.77
2022-11-23T00:46:25.492Z,3.80
2022-11-23T00:48:56.175Z,4.50
2022-11-23T00:51:28.094Z,5.40
2022-11-23T00:53:55.768Z,5.37
2022-11-23T00:56:25.130Z,3.30
2022-11-23T00:58:54.632Z,3.80
2022-11-23T01:01:26.547Z,3.83
2022-11-23T01:03:57.796Z,4.12
2022-11-23T01:06:31.807Z,4.42
2022-11-23T01:09:07.899Z,4.10
2022-11-23T01:11:35.903Z,4.00
2022-11-23T01:14:04.309Z,3.22
2022-11-23T01:16:37.251Z,3.10
2022-11-23T01:19:08.749Z,2.45
2022-11-23T01:21:36.892Z,2.10
2022-11-23T01:24:17.662Z,2.15
2022-11-23T01:26:48.729Z,1.95
2022-11-23T01:29:17.760Z,2.75
2022-11-23T01:31:46.941Z,3.60
2022-11-23T01:34:15.862Z,3.00
2022-11-23T01:36:45.257Z,2.22
2022-11-23T01:39:14.716Z,3.40
2022-11-23T01:41:44.970Z,3.67
2022-11-23T01:44:29.694Z,3.95
2022-11-23T01:47:01.072Z,6.67
2022-11-23T01:49:36.535Z,4.53
2022-11-23T01:52:13.048Z,3.87
2022-11-23T01:54:51.392Z,2.90
2022-11-23T01:57:26.151Z,3.00
2022-11-23T01:59:55.331Z,2.67
2022-11-23T02:02:22.869Z,2.92
2022-11-23T02:04:51.709Z,1.92
2022-11-23T02:07:20.541Z,1.75
2022-11-23T02:09:48.988Z,2.00
2022-11-23T02:12:16.766Z,2.37
2022-11-23T02:14:45.553Z,2.50
2022-11-23T02:17:13.635Z,2.08
2022-11-23T02:20:09.853Z,2.33
2022-11-23T02:23:23.905Z,2.30
2022-11-23T02:26:15.605Z,7.22
2022-11-23T02:28:54.422Z,3.10
2022-11-23T02:31:23.176Z,2.70
2022-11-23T02:33:52.634Z,2.60
2022-11-23T02:36:50.028Z,2.83
2022-11-23T02:39:22.633Z,3.10
2022-11-23T02:41:53.005Z,3.08
2022-11-23T02:44:31.817Z,2.58
2022-11-23T02:46:59.851Z,2.27
2022-11-23T02:49:27.977Z,2.33
2022-11-23T02:51:55.633Z,2.42
2022-11-23T02:54:25.204Z,7.45
2022-11-23T02:56:52.838Z,2.35
2022-11-23T02:59:20.732Z,3.27
2022-11-23T03:01:50.311Z,3.20
2022-11-23T03:04:19.823Z,2.80
2022-11-23T03:06:47.002Z,3.22
2022-11-23T03:09:14.551Z,3.27
2022-11-23T03:11:42.568Z,6.58
2022-11-23T03:14:10.960Z,3.27
2022-11-23T03:16:40.251Z,2.62
2022-11-23T03:19:08.357Z,2.70
2022-11-23T03:21:36.814Z,1.80
2022-11-23T03:24:06.783Z,2.20
2022-11-23T03:26:35.226Z,2.15
2022-11-23T03:29:05.139Z,2.40
2022-11-23T03:31:32.916Z,2.35
2022-11-23T03:34:01.315Z,2.40
2022-11-23T03:36:30.482Z,2.27
2022-11-23T03:38:58.668Z,2.50
2022-11-23T03:41:30.809Z,2.40
2022-11-23T03:44:00.133Z,2.50
2022-11-23T03:46:27.958Z,2.70
2022-11-23T03:48:55.658Z,12.63
2022-11-23T03:51:22.985Z,3.15
2022-11-23T03:53:50.632Z,3.37
2022-11-23T03:56:19.734Z,2.80
2022-11-23T03:58:47.269Z,2.60
2022-11-23T04:01:15.092Z,6.00
2022-11-23T04:03:44.452Z,5.75
2022-11-23T04:06:14.013Z,3.55
2022-11-23T04:08:50.417Z,3.90
2022-11-23T04:11:19.986Z,4.10
2022-11-23T04:13:49.023Z,4.25
2022-11-23T04:16:16.841Z,4.05
2022-11-23T04:18:44.416Z,4.17
2022-11-23T04:21:12.297Z,8.93
2022-11-23T04:23:40.159Z,4.20
2022-11-23T04:26:09.118Z,3.45
2022-11-23T04:28:38.512Z,3.67
2022-11-23T04:31:06.618Z,4.72
2022-11-23T04:33:36.167Z,5.80
2022-11-23T04:36:05.435Z,4.80
2022-11-23T04:38:33.114Z,4.03
2022-11-23T04:41:00.973Z,3.80
2022-11-23T04:43:28.666Z,3.80
2022-11-23T04:45:57.333Z,3.60
2022-11-23T04:48:26.790Z,4.35
2022-11-23T04:50:55.899Z,3.92
2022-11-23T04:53:28.113Z,3.80
2022-11-23T04:55:56.358Z,3.05
2022-11-23T04:58:24.192Z,3.52
2022-11-23T05:00:54.214Z,3.30
2022-11-23T05:03:21.900Z,4.70
2022-11-23T05:05:49.882Z,3.85
2022-11-23T05:08:17.606Z,3.37
2022-11-23T05:10:47.486Z,3.22
2022-11-23T05:13:15.333Z,5.33
2022-11-23T05:15:43.580Z,5.25
2022-11-23T05:18:13.464Z,4.60
2022-11-23T05:20:41.524Z,4.80
2022-11-23T05:23:11.001Z,4.78
2022-11-23T05:25:40.651Z,4.17
2022-11-23T05:28:39.093Z,3.90
2022-11-23T05:30:49.027Z,4.42
2022-11-23T05:33:16.943Z,4.80
2022-11-23T05:35:44.743Z,4.60
2022-11-23T05:38:12.519Z,5.00
2022-11-23T05:40:40.250Z,4.17
2022-11-23T05:43:09.090Z,3.52
2022-11-23T05:45:36.598Z,5.25
2022-11-23T05:48:04.803Z,3.87
2022-11-23T05:50:34.555Z,3.95
2022-11-23T05:53:19.333Z,3.72
2022-11-23T05:55:49.004Z,4.28
2022-11-23T05:58:18.793Z,4.10
2022-11-23T06:00:46.395Z,4.45
2022-11-23T06:03:15.231Z,4.40
2022-11-23T06:05:43.177Z,4.22
2022-11-23T06:08:10.731Z,4.70
2022-11-23T06:10:39.710Z,7.80
2022-11-23T06:13:07.370Z,4.80
2022-11-23T06:15:35.865Z,4.75
2022-11-23T06:18:04.056Z,5.15
2022-11-23T06:20:36.319Z,8.20
2022-11-23T06:23:04.144Z,29.60
2022-11-23T06:25:31.724Z,13.10
2022-11-23T06:28:01.401Z,5.40
2022-11-23T06:30:31.190Z,5.08
2022-11-23T06:33:04.198Z,5.20
2022-11-23T06:35:33.779Z,4.55
2022-11-23T06:38:01.497Z,4.72
2022-11-23T06:40:29.509Z,5.50
2022-11-23T06:43:00.388Z,8.78
2022-11-23T06:45:39.170Z,7.22
2022-11-23T06:48:08.503Z,5.87
2022-11-23T06:50:37.913Z,5.42
2022-11-23T06:53:05.604Z,5.40
2022-11-23T06:55:35.193Z,5.00
2022-11-23T06:58:04.028Z,5.55
2022-11-23T07:00:32.980Z,5.55
2022-11-23T07:03:01.765Z,6.28
2022-11-23T07:05:31.436Z,4.87
2022-11-23T07:07:59.185Z,5.17
2022-11-23T07:10:27.307Z,7.22
2022-11-23T07:13:06.551Z,11.63
2022-11-23T07:15:36.560Z,9.60
2022-11-23T07:18:05.648Z,6.90
2022-11-23T07:20:34.122Z,6.17
2022-11-23T07:23:06.576Z,6.97
2022-11-23T07:25:37.804Z,5.33
2022-11-23T07:28:07.552Z,4.65
2022-11-23T07:30:36.163Z,3.85
2022-11-23T07:33:08.029Z,4.90
2022-11-23T07:35:41.360Z,4.55
2022-11-23T07:38:09.125Z,5.03
2022-11-23T07:40:38.559Z,4.12
2022-11-23T07:43:07.653Z,4.17
2022-11-23T07:45:36.837Z,4.90
2022-11-23T07:48:08.908Z,4.47
2022-11-23T07:50:39.712Z,4.42
2022-11-23T07:53:08.085Z,4.70
2022-11-23T07:55:35.368Z,4.62
2022-11-23T07:58:02.967Z,8.13
2022-11-23T08:00:31.112Z,5.67
2022-11-23T08:03:26.303Z,5.05
2022-11-23T08:05:28.734Z,4.90
2022-11-23T08:08:01.359Z,5.40
2022-11-23T08:10:31.191Z,5.78
2022-11-23T08:13:00.449Z,4.62
2022-11-23T08:15:28.242Z,5.00
2022-11-23T08:17:59.097Z,5.25
2022-11-23T08:20:29.491Z,5.37
2022-11-23T08:22:57.514Z,5.12
2022-11-23T08:25:27.327Z,4.33
2022-11-23T08:27:58.461Z,4.58
2022-11-23T08:30:27.660Z,5.22
2022-11-23T08:32:55.843Z,5.30
2022-11-23T08:35:24.286Z,8.50
2022-11-23T08:37:52.203Z,5.60
2022-11-23T08:40:25.116Z,5.62
2022-11-23T08:42:49.673Z,4.15
2022-11-23T08:45:19.125Z,5.45
2022-11-23T08:47:46.527Z,4.65
2022-11-23T08:50:14.570Z,5.00
2022-11-23T08:52:42.505Z,5.42
2022-11-23T08:55:10.309Z,5.65
2022-11-23T08:57:38.422Z,5.53
2022-11-23T09:00:08.272Z,5.22
2022-11-23T09:02:35.993Z,5.80
2022-11-23T09:05:06.141Z,8.33
2022-11-23T09:07:34.007Z,9.05
2022-11-23T09:10:01.817Z,11.08
2022-11-23T09:12:29.543Z,13.40
2022-11-23T09:14:57.097Z,11.78
2022-11-23T09:17:24.487Z,11.18
2022-11-23T09:19:52.071Z,8.50
2022-11-23T09:22:19.781Z,7.65
2022-11-23T09:24:47.573Z,6.95
2022-11-23T09:27:15.222Z,6.00
2022-11-23T09:29:43.180Z,5.80
2022-11-23T09:32:11.072Z,5.20
2022-11-23T09:34:38.529Z,4.67
2022-11-23T09:37:06.071Z,4.80
2022-11-23T09:39:34.030Z,4.80
2022-11-23T09:42:09.500Z,5.00
2022-11-23T09:45:10.374Z,4.25
2022-11-23T09:48:00.408Z,5.15
2022-11-23T09:50:36.166Z,4.87
2022-11-23T09:53:09.279Z,4.72
2022-11-23T09:55:47.230Z,4.40
2022-11-23T09:58:24.857Z,4.80
2022-11-23T10:01:07.124Z,5.83
2022-11-23T10:03:43.934Z,5.92
2022-11-23T10:06:28.023Z,5.70
2022-11-23T10:09:18.702Z,5.75
2022-11-23T10:12:18.870Z,6.22
2022-11-23T10:15:13.614Z,5.12
2022-11-23T10:18:10.468Z,6.87
2022-11-23T10:21:03.222Z,5.17
2022-11-23T10:23:56.860Z,5.00
2022-11-23T10:26:36.045Z,4.83
2022-11-23T10:29:14.111Z,5.58
2022-11-23T10:31:46.633Z,5.83
2022-11-23T10:34:19.693Z,4.87
2022-11-23T10:36:47.507Z,4.15
2022-11-23T10:39:25.898Z,4.55
2022-11-23T10:42:01.668Z,4.22
2022-11-23T10:44:37.930Z,5.05
2022-11-23T10:47:05.862Z,4.92
2022-11-23T10:49:35.503Z,4.37
2022-11-23T10:52:08.232Z,5.50
2022-11-23T10:54:46.770Z,7.20
2022-11-23T10:57:30.708Z,8.63
2022-11-23T11:00:12.761Z,9.13
2022-11-23T11:02:43.771Z,9.95
2022-11-23T11:06:09.382Z,12.07
2022-11-23T11:08:18.587Z,14.03
2022-11-23T11:10:59.206Z,12.80
2022-11-23T11:13:34.902Z,10.40
2022-11-23T11:16:06.736Z,12.95
2022-11-23T11:18:37.814Z,16.02
2022-11-23T11:21:22.820Z,8.68
2022-11-23T11:24:04.307Z,6.60
2022-11-23T11:26:35.419Z,6.90
2022-11-23T11:29:06.299Z,7.03
2022-11-23T11:31:54.550Z,8.80
2022-11-23T11:34:30.462Z,7.20
2022-11-23T11:37:12.028Z,5.55
2022-11-23T11:39:55.840Z,5.58
2022-11-23T11:42:56.813Z,5.70
2022-11-23T11:45:35.295Z,5.70
2022-11-23T11:48:38.961Z,5.65
2022-11-23T11:51:23.460Z,6.20
2022-11-23T11:53:59.301Z,5.30
2022-11-23T11:56:52.784Z,5.12
2022-11-23T11:59:43.003Z,4.75
2022-11-23T12:02:39.048Z,5.60
2022-11-23T12:05:17.919Z,6.62
2022-11-23T12:08:13.659Z,5.25
2022-11-23T12:10:58.733Z,5.47
2022-11-23T12:13:31.723Z,5.08
2022-11-23T12:16:45.900Z,7.15
2022-11-23T12:22:23.181Z,5.72
2022-11-23T12:25:13.784Z,5.10
2022-11-23T12:28:19.110Z,5.33
2022-11-23T12:31:16.016Z,5.47
2022-11-23T12:34:04.266Z,5.65
2022-11-23T12:36:46.512Z,5.65
2022-11-23T12:39:54.910Z,4.83
2022-11-23T12:42:54.453Z,5.33
2022-11-23T12:45:42.442Z,4.87
2022-11-23T12:48:41.290Z,5.17
2022-11-23T12:51:23.053Z,6.58
2022-11-23T12:54:34.530Z,5.00
2022-11-23T12:57:29.735Z,5.53
2022-11-23T13:00:08.594Z,6.40
2022-11-23T13:03:00.046Z,6.22
2022-11-23T13:05:54.606Z,5.37
2022-11-23T13:08:39.489Z,6.47
2022-11-23T13:11:34.058Z,5.78
2022-11-23T13:14:24.111Z,6.30
2022-11-23T13:17:16.127Z,7.35
2022-11-23T13:19:58.352Z,9.75
2022-11-23T13:22:27.366Z,9.60
2022-11-23T13:25:09.922Z,8.75
2022-11-23T13:27:51.721Z,9.10
2022-11-23T13:31:07.184Z,8.70
2022-11-23T13:33:27.157Z,8.08
2022-11-23T13:36:01.046Z,8.95
2022-11-23T13:38:36.945Z,10.30
2022-11-23T13:41:36.014Z,10.82
2022-11-23T13:44:27.728Z,10.00
2022-11-23T13:47:15.894Z,10.25
2022-11-23T13:49:49.565Z,8.80
2022-11-23T13:55:11.501Z,7.92
2022-11-23T13:57:42.242Z,7.00
2022-11-23T14:00:50.063Z,9.25
2022-11-23T14:03:52.537Z,7.70
2022-11-23T14:06:50.758Z,7.55
2022-11-23T14:09:49.647Z,6.85
2022-11-23T14:12:23.368Z,5.95
2022-11-23T14:15:17.680Z,5.78
2022-11-23T14:18:22.808Z,6.83
2022-11-23T14:21:11.389Z,7.17
2022-11-23T14:24:02.734Z,7.10
2022-11-23T14:26:50.763Z,13.80
2022-11-23T14:30:08.588Z,13.43
2022-11-23T14:33:03.519Z,12.90
2022-11-23T14:35:42.043Z,9.18
2022-11-23T14:38:32.007Z,8.43
2022-11-23T14:41:10.348Z,8.25
2022-11-23T14:43:41.796Z,8.03
2022-11-23T14:46:18.496Z,10.23
2022-11-23T14:48:48.445Z,19.35
2022-11-23T14:51:23.164Z,11.12
2022-11-23T14:53:55.021Z,13.55
2022-11-23T14:56:47.101Z,13.18
2022-11-23T14:59:29.086Z,13.40
2022-11-23T15:02:00.886Z,13.13
2022-11-23T15:04:34.101Z,16.70
2022-11-23T15:07:07.461Z,12.53
2022-11-23T15:10:18.901Z,10.93
2022-11-23T15:12:48.982Z,9.05
2022-11-23T15:15:23.620Z,10.53
2022-11-23T15:17:55.897Z,11.60
2022-11-23T15:20:28.928Z,11.78
2022-11-23T15:22:56.511Z,14.35
2022-11-23T15:25:24.248Z,14.40
2022-11-23T15:27:52.421Z,13.28
2022-11-23T15:30:28.326Z,14.45
2022-11-23T15:33:04.125Z,15.00
2022-11-23T15:35:35.173Z,13.53
2022-11-23T15:38:10.179Z,10.40
2022-11-23T15:40:42.385Z,22.85
2022-11-23T15:43:18.689Z,13.13
2022-11-23T15:45:51.620Z,11.68
2022-11-23T15:48:32.899Z,15.50
2022-11-23T15:51:08.105Z,12.35
2022-11-23T15:53:51.343Z,11.88
2022-11-23T15:56:30.575Z,12.78
2022-11-23T15:59:03.105Z,14.53
2022-11-23T16:01:31.495Z,14.60
2022-11-23T16:04:06.330Z,16.37
2022-11-23T16:06:40.603Z,21.60
2022-11-23T16:09:55.482Z,19.20
2022-11-23T16:12:31.163Z,19.48
2022-11-23T16:15:31.872Z,24.23
2022-11-23T16:18:01.281Z,26.27
2022-11-23T16:20:30.131Z,26.42
2022-11-23T16:23:01.342Z,30.02
2022-11-23T16:25:33.032Z,29.20
2022-11-23T16:28:14.260Z,30.75
2022-11-23T16:30:46.893Z,32.88
2022-11-23T16:33:17.590Z,30.60
2022-11-23T16:35:45.698Z,30.62
2022-11-23T16:38:13.453Z,31.70
2022-11-23T16:40:43.388Z,29.30
2022-11-23T16:43:12.356Z,29.10
2022-11-23T16:45:46.836Z,34.25
2022-11-23T16:48:38.581Z,30.08
2022-11-23T16:51:07.546Z,31.82
2022-11-23T16:54:00.360Z,38.20
2022-11-23T16:56:08.134Z,36.38
2022-11-23T16:58:36.031Z,36.20
2022-11-23T17:01:04.280Z,39.92
2022-11-23T17:03:33.483Z,27.02
2022-11-23T17:06:01.231Z,25.52
2022-11-23T17:08:28.783Z,25.15
2022-11-23T17:10:56.475Z,27.80
2022-11-23T17:13:28.456Z,38.55
2022-11-23T17:15:56.355Z,40.35
2022-11-23T17:18:24.010Z,36.08
2022-11-23T17:20:51.540Z,31.82
2022-11-23T17:23:19.157Z,33.75
2022-11-23T17:25:46.890Z,28.15
2022-11-23T17:28:22.234Z,31.25
2022-11-23T17:30:50.275Z,30.43
2022-11-23T17:33:17.903Z,27.75
2022-11-23T17:35:45.736Z,26.93
2022-11-23T17:38:16.995Z,24.82
2022-11-23T17:40:45.263Z,22.98
2022-11-23T17:43:14.854Z,22.90
2022-11-23T17:45:44.363Z,18.85
2022-11-23T17:48:14.878Z,17.32
2022-11-23T17:50:42.540Z,19.52
2022-11-23T17:53:10.940Z,19.02
2022-11-23T17:55:38.531Z,23.62
2022-11-23T17:58:06.737Z,22.02
2022-11-23T18:00:35.087Z,27.05
2022-11-23T18:03:02.843Z,24.57
2022-11-23T18:05:31.101Z,28.47
2022-11-23T18:07:58.838Z,24.98
2022-11-23T18:10:26.639Z,30.17
2022-11-23T18:12:54.306Z,29.50
2022-11-23T18:15:21.594Z,28.40
2022-11-23T18:17:49.174Z,28.30
2022-11-23T18:20:17.257Z,28.57
2022-11-23T18:22:45.177Z,30.45
2022-11-23T18:25:12.612Z,27.42
2022-11-23T18:27:40.237Z,28.02
2022-11-23T18:30:09.055Z,24.55
2022-11-23T18:32:37.124Z,19.35
2022-11-23T18:35:06.526Z,18.02
2022-11-23T18:37:33.982Z,19.67
2022-11-23T18:40:02.155Z,24.47
2022-11-23T18:42:30.064Z,23.65
2022-11-23T18:44:57.648Z,25.02
2022-11-23T18:47:25.306Z,28.35
2022-11-23T18:49:52.956Z,28.12
2022-11-23T18:52:20.721Z,32.23
2022-11-23T18:54:48.574Z,30.88
2022-11-23T18:57:16.529Z,24.05
2022-11-23T18:59:59.718Z,18.20
2022-11-23T19:02:13.967Z,17.87
2022-11-23T19:04:41.801Z,17.45
2022-11-23T19:07:09.305Z,13.43
2022-11-23T19:09:37.088Z,12.30
2022-11-23T19:12:06.358Z,13.22
2022-11-23T19:14:33.909Z,14.87
2022-11-23T19:17:02.223Z,16.67
2022-11-23T19:19:29.714Z,20.92
2022-11-23T19:21:57.665Z,25.27
2022-11-23T19:24:25.662Z,23.98
2022-11-23T19:26:53.313Z,23.30
2022-11-23T19:29:24.794Z,14.30
2022-11-23T19:31:52.410Z,12.80
2022-11-23T19:34:21.941Z,10.90
2022-11-23T19:36:49.495Z,11.97
2022-11-23T19:39:17.050Z,13.58
2022-11-23T19:41:44.820Z,15.80
2022-11-23T19:44:12.388Z,14.98
2022-11-23T19:46:40.562Z,14.75
2022-11-23T19:49:08.546Z,16.15
2022-11-23T19:51:35.943Z,11.22
2022-11-23T19:54:05.531Z,12.03
2022-11-23T19:56:33.027Z,10.98
2022-11-23T19:59:01.535Z,11.43
2022-11-23T20:01:32.328Z,11.60
2022-11-23T20:04:08.222Z,11.80
2022-11-23T20:06:35.654Z,16.27
2022-11-23T20:09:06.925Z,18.95
2022-11-23T20:11:35.378Z,19.15
2022-11-23T20:14:03.543Z,23.27
2022-11-23T20:16:32.740Z,18.37
2022-11-23T20:19:04.538Z,16.85
2022-11-23T20:21:33.926Z,18.77
2022-11-23T20:24:13.388Z,22.17
2022-11-23T20:26:42.243Z,26.45
2022-11-23T20:29:10.360Z,23.38
2022-11-23T20:31:38.055Z,20.48
2022-11-23T20:34:08.112Z,17.77
2022-11-23T20:36:37.663Z,18.25
2022-11-23T20:39:09.570Z,16.35
2022-11-23T20:41:37.769Z,17.73
2022-11-23T20:44:13.054Z,17.55
2022-11-23T20:49:10.847Z,18.35
2022-11-23T20:51:38.455Z,15.38
2022-11-23T20:54:06.479Z,15.15
2022-11-23T20:56:34.817Z,14.95
2022-11-23T20:59:03.761Z,14.60
2022-11-23T21:01:32.013Z,16.77
2022-11-23T21:03:59.831Z,13.90
2022-11-23T21:06:28.060Z,11.57
2022-11-23T21:08:56.140Z,16.12
2022-11-23T21:11:45.311Z,12.33
2022-11-23T21:14:19.653Z,12.15
2022-11-23T21:16:57.637Z,13.15
2022-11-23T21:19:30.188Z,16.27
2022-11-23T21:22:01.248Z,14.60
2022-11-23T21:24:29.196Z,15.53
2022-11-23T21:26:57.112Z,16.73
2022-11-23T21:29:25.640Z,16.10
2022-11-23T21:31:53.686Z,16.62
2022-11-23T21:34:25.303Z,14.00
2022-11-23T21:36:54.649Z,14.30
2022-11-23T21:39:23.562Z,12.68
2022-11-23T21:41:53.649Z,11.65
2022-11-23T21:44:22.207Z,13.40
2022-11-23T21:46:50.300Z,14.15
2022-11-23T21:49:20.093Z,16.48
2022-11-23T21:51:48.321Z,21.20
2022-11-23T21:54:16.385Z,17.65
2022-11-23T21:56:45.964Z,14.55
2022-11-23T21:59:14.406Z,11.60
2022-11-23T22:01:42.573Z,12.45
2022-11-23T22:04:12.980Z,15.00
2022-11-23T22:06:41.655Z,15.18
2022-11-23T22:09:11.035Z,15.75
2022-11-23T22:11:42.426Z,15.13
2022-11-23T22:14:18.515Z,13.48
2022-11-23T22:16:53.241Z,13.22
2022-11-23T22:19:20.737Z,13.45
2022-11-23T22:21:48.554Z,12.60
2022-11-23T22:24:19.079Z,12.10
2022-11-23T22:26:48.353Z,12.30
2022-11-23T22:29:16.303Z,12.15
2022-11-23T22:31:44.168Z,10.55
2022-11-23T22:34:13.594Z,10.13
2022-11-23T22:36:41.499Z,10.85
2022-11-23T22:39:09.525Z,10.13
2022-11-23T22:41:38.363Z,10.85
2022-11-23T22:44:09.081Z,11.55
2022-11-23T22:46:37.686Z,10.25
2022-11-23T22:49:05.806Z,10.23
2022-11-23T22:51:33.737Z,9.23
2022-11-23T22:54:02.266Z,9.30
2022-11-23T22:56:30.834Z,8.70
2022-11-23T22:58:59.129Z,8.33
2022-11-23T23:01:30.010Z,8.50
2022-11-23T23:04:00.867Z,9.38
2022-11-23T23:06:33.882Z,8.68
2022-11-23T23:09:03.671Z,8.88
2022-11-23T23:11:32.561Z,9.48
2022-11-23T23:14:00.761Z,9.55
2022-11-23T23:16:29.461Z,8.45
2022-11-23T23:18:58.677Z,7.28
2022-11-23T23:21:27.742Z,7.65
2022-11-23T23:23:58.304Z,6.97
2022-11-23T23:26:28.070Z,7.33
2022-11-23T23:28:58.416Z,6.87
2022-11-23T23:31:27.861Z,6.17
2022-11-23T23:33:56.456Z,5.75
2022-11-23T23:36:24.504Z,6.50
2022-11-23T23:38:52.168Z,6.08
2022-11-23T23:41:20.268Z,6.85
2022-11-23T23:43:48.302Z,6.70
2022-11-23T23:46:16.663Z,6.90
2022-11-23T23:48:44.879Z,7.72
2022-11-23T23:51:18.952Z,6.62
2022-11-23T23:53:47.042Z,6.60
2022-11-23T23:56:19.388Z,7.22
2022-11-23T23:58:47.024Z,6.62
